Aeroporto :
LOGIN :

Iscrizione | Disclaimer

   EN    FR    IT 

 










Sommario :    VFR   VFR Marginale   IFR   IFR Intensivo   IFR Molto Intensivo
Visibilità : 
Base nubi : 
>= 8 km
>= 3000ft
5 / 8 km
1000 / 3000 ft
1500m / 5 km
500 / 1000 ft
800 / 1500m
200 / 500 ft
< 800m
< 200 ft
Simboli :   Temporali  Nebbia  Neve Forte  Precipitazioni Forti  Vento > 20 kt
SIGMETs :   Varie  Temporali  Ghiacco  Turbolenza  Onda orograficha  Ceneri Vulcaniche






- Altitudine del aeroporto : 26 ft
- Codice IATA : SYY


EGPO - Stornoway

ULTIMO METAR :
  • 030020Z AUTO 04012KT 9999 FEW020/// BKN042/// 10/06 Q1022

METARs OBSOLETI :
  • 022350Z AUTO 03014KT 9999 SCT020/// BKN044/// 10/06 Q1022
  • 022320Z AUTO 03014KT 9999 BKN019/// 10/06 Q1022
  • 022250Z AUTO 04013KT 9999 BKN019/// BKN024/// 10/06 Q1022
  • 022220Z AUTO 03016KT 9999 SCT026/// BKN032/// 10/06 Q1022
  • 022150Z AUTO 04017KT 9999 BKN021/// BKN031/// 10/06 Q1022

TAF TAF EGPO
Valido dal 02 a 21 ore il 03 a 06 ore UTC


021955Z 0221/0306 03015KT 9999 SCT020
PROB30
TEMPO 0221/0303 BKN014
ATIS : +44 1851 707 444



MetMap, La meteo Aeronautica in un colpo d'occhio ! - Copyright ORBIFLY Dicembre 2007 - Disclaimer

ORBIFLY MET'MAP TEAM :

Programmazione e sviluppo : Alexandra Zaïnal
Concezione : Baudouin d'Aumeries
Aiuto per la programmazione : Marc-Olivier Méhu
Supporto tecnico e logistico : Manuel Goepfert
Aiuto per la traduzione : Arnaldo La Scala

Contatto : metmap@orbifly.com




FONTI E CREDITI :

   NOAA